sensor_id;sensor_type;location;lat;lon;timestamp;temperature;humidity
4374;DHT22;2201;51.100;6.814;2024-02-14T00:00:57;9.30;98.20
4374;DHT22;2201;51.100;6.814;2024-02-14T00:03:31;9.30;98.20
4374;DHT22;2201;51.100;6.814;2024-02-14T00:05:59;9.20;98.20
4374;DHT22;2201;51.100;6.814;2024-02-14T00:08:26;9.20;98.20
4374;DHT22;2201;51.100;6.814;2024-02-14T00:10:56;9.20;98.20
4374;DHT22;2201;51.100;6.814;2024-02-14T00:13:26;9.20;98.20
4374;DHT22;2201;51.100;6.814;2024-02-14T00:16:17;9.20;98.20
4374;DHT22;2201;51.100;6.814;2024-02-14T00:18:45;9.20;98.20
4374;DHT22;2201;51.100;6.814;2024-02-14T00:24:08;9.20;98.20
4374;DHT22;2201;51.100;6.814;2024-02-14T00:26:40;9.20;98.20
4374;DHT22;2201;51.100;6.814;2024-02-14T00:29:11;9.20;98.20
4374;DHT22;2201;51.100;6.814;2024-02-14T00:31:48;9.20;98.20
4374;DHT22;2201;51.100;6.814;2024-02-14T00:34:24;9.20;98.20
4374;DHT22;2201;51.100;6.814;2024-02-14T00:37:05;9.20;98.20
4374;DHT22;2201;51.100;6.814;2024-02-14T00:39:36;9.10;98.20
4374;DHT22;2201;51.100;6.814;2024-02-14T00:42:06;9.10;98.20
4374;DHT22;2201;51.100;6.814;2024-02-14T00:44:39;9.10;98.20
4374;DHT22;2201;51.100;6.814;2024-02-14T00:47:09;9.10;98.20
4374;DHT22;2201;51.100;6.814;2024-02-14T00:49:36;9.10;98.20
4374;DHT22;2201;51.100;6.814;2024-02-14T00:52:04;9.10;98.20
4374;DHT22;2201;51.100;6.814;2024-02-14T00:54:32;9.10;98.20
4374;DHT22;2201;51.100;6.814;2024-02-14T00:57:02;9.20;98.20
4374;DHT22;2201;51.100;6.814;2024-02-14T00:59:31;9.10;98.20
4374;DHT22;2201;51.100;6.814;2024-02-14T01:02:09;9.10;98.20
4374;DHT22;2201;51.100;6.814;2024-02-14T01:04:47;9.10;98.20
4374;DHT22;2201;51.100;6.814;2024-02-14T01:07:28;9.20;98.20
4374;DHT22;2201;51.100;6.814;2024-02-14T01:09:55;9.10;98.20
4374;DHT22;2201;51.100;6.814;2024-02-14T01:12:23;9.20;98.20
4374;DHT22;2201;51.100;6.814;2024-02-14T01:14:55;9.20;98.20
4374;DHT22;2201;51.100;6.814;2024-02-14T01:17:22;9.20;98.20
4374;DHT22;2201;51.100;6.814;2024-02-14T01:19:53;9.20;98.20
4374;DHT22;2201;51.100;6.814;2024-02-14T01:22:20;9.20;98.20
4374;DHT22;2201;51.100;6.814;2024-02-14T01:24:50;9.20;98.20
4374;DHT22;2201;51.100;6.814;2024-02-14T01:27:27;9.20;98.20
4374;DHT22;2201;51.100;6.814;2024-02-14T01:30:00;9.20;98.20
4374;DHT22;2201;51.100;6.814;2024-02-14T01:32:27;9.20;98.20
4374;DHT22;2201;51.100;6.814;2024-02-14T01:34:55;9.20;98.20
4374;DHT22;2201;51.100;6.814;2024-02-14T01:37:25;9.20;98.20
4374;DHT22;2201;51.100;6.814;2024-02-14T01:40:09;9.20;98.20
4374;DHT22;2201;51.100;6.814;2024-02-14T01:42:43;9.20;98.20
4374;DHT22;2201;51.100;6.814;2024-02-14T01:45:17;9.20;98.20
4374;DHT22;2201;51.100;6.814;2024-02-14T01:47:45;9.20;98.20
4374;DHT22;2201;51.100;6.814;2024-02-14T01:50:18;9.20;98.20
4374;DHT22;2201;51.100;6.814;2024-02-14T01:52:57;9.20;98.20
4374;DHT22;2201;51.100;6.814;2024-02-14T01:55:31;9.20;98.20
4374;DHT22;2201;51.100;6.814;2024-02-14T01:58:02;9.20;98.20
4374;DHT22;2201;51.100;6.814;2024-02-14T02:00:30;9.20;98.20
4374;DHT22;2201;51.100;6.814;2024-02-14T02:03:01;9.30;98.20
4374;DHT22;2201;51.100;6.814;2024-02-14T02:08:29;9.30;98.20
4374;DHT22;2201;51.100;6.814;2024-02-14T02:10:59;9.30;98.20
4374;DHT22;2201;51.100;6.814;2024-02-14T02:13:43;9.30;98.20
4374;DHT22;2201;51.100;6.814;2024-02-14T02:16:20;9.30;98.20
4374;DHT22;2201;51.100;6.814;2024-02-14T02:18:51;9.30;98.20
4374;DHT22;2201;51.100;6.814;2024-02-14T02:21:20;9.30;98.20
4374;DHT22;2201;51.100;6.814;2024-02-14T02:23:50;9.30;98.20
4374;DHT22;2201;51.100;6.814;2024-02-14T02:26:20;9.30;98.20
4374;DHT22;2201;51.100;6.814;2024-02-14T02:28:48;9.40;98.20
4374;DHT22;2201;51.100;6.814;2024-02-14T02:31:24;9.30;98.20
4374;DHT22;2201;51.100;6.814;2024-02-14T02:34:20;9.40;98.20
4374;DHT22;2201;51.100;6.814;2024-02-14T02:36:55;9.40;98.20
4374;DHT22;2201;51.100;6.814;2024-02-14T02:39:38;9.40;98.20
4374;DHT22;2201;51.100;6.814;2024-02-14T02:44:52;9.40;98.20
4374;DHT22;2201;51.100;6.814;2024-02-14T02:47:28;9.40;98.20
4374;DHT22;2201;51.100;6.814;2024-02-14T02:50:00;9.40;98.20
4374;DHT22;2201;51.100;6.814;2024-02-14T02:52:27;9.40;98.20
4374;DHT22;2201;51.100;6.814;2024-02-14T02:55:02;9.40;98.20
4374;DHT22;2201;51.100;6.814;2024-02-14T02:57:33;9.40;98.20
4374;DHT22;2201;51.100;6.814;2024-02-14T03:00:04;9.40;98.20
4374;DHT22;2201;51.100;6.814;2024-02-14T03:02:46;9.50;98.20
4374;DHT22;2201;51.100;6.814;2024-02-14T03:05:25;9.50;98.20
4374;DHT22;2201;51.100;6.814;2024-02-14T03:07:58;9.50;98.20
4374;DHT22;2201;51.100;6.814;2024-02-14T03:10:47;9.50;98.20
4374;DHT22;2201;51.100;6.814;2024-02-14T03:13:17;9.50;98.20
4374;DHT22;2201;51.100;6.814;2024-02-14T03:15:45;9.50;98.20
4374;DHT22;2201;51.100;6.814;2024-02-14T03:18:26;9.50;98.20
4374;DHT22;2201;51.100;6.814;2024-02-14T03:21:15;9.60;98.20
4374;DHT22;2201;51.100;6.814;2024-02-14T03:23:49;9.60;98.20
4374;DHT22;2201;51.100;6.814;2024-02-14T03:26:20;9.70;98.20
4374;DHT22;2201;51.100;6.814;2024-02-14T03:28:47;9.80;98.20
4374;DHT22;2201;51.100;6.814;2024-02-14T03:31:22;9.80;98.20
4374;DHT22;2201;51.100;6.814;2024-02-14T03:33:51;9.90;98.20
4374;DHT22;2201;51.100;6.814;2024-02-14T03:36:29;10.00;98.20
4374;DHT22;2201;51.100;6.814;2024-02-14T03:39:04;10.00;98.20
4374;DHT22;2201;51.100;6.814;2024-02-14T03:41:33;10.00;98.20
4374;DHT22;2201;51.100;6.814;2024-02-14T03:44:03;10.00;98.20
4374;DHT22;2201;51.100;6.814;2024-02-14T03:46:29;10.10;98.20
4374;DHT22;2201;51.100;6.814;2024-02-14T03:48:57;10.10;98.20
4374;DHT22;2201;51.100;6.814;2024-02-14T03:51:24;10.10;98.20
4374;DHT22;2201;51.100;6.814;2024-02-14T03:53:51;10.10;98.20
4374;DHT22;2201;51.100;6.814;2024-02-14T03:56:21;10.20;98.20
4374;DHT22;2201;51.100;6.814;2024-02-14T03:59:00;10.20;98.20
4374;DHT22;2201;51.100;6.814;2024-02-14T04:01:33;10.20;98.20
4374;DHT22;2201;51.100;6.814;2024-02-14T04:04:00;10.20;98.20
4374;DHT22;2201;51.100;6.814;2024-02-14T04:06:27;10.30;98.20
4374;DHT22;2201;51.100;6.814;2024-02-14T04:09:15;10.30;98.20
4374;DHT22;2201;51.100;6.814;2024-02-14T04:14:46;10.30;98.20
4374;DHT22;2201;51.100;6.814;2024-02-14T04:17:14;10.30;98.20
4374;DHT22;2201;51.100;6.814;2024-02-14T04:19:40;10.30;98.20
4374;DHT22;2201;51.100;6.814;2024-02-14T04:22:07;10.30;98.20
4374;DHT22;2201;51.100;6.814;2024-02-14T04:24:35;10.30;98.20
4374;DHT22;2201;51.100;6.814;2024-02-14T04:27:07;10.30;98.20
4374;DHT22;2201;51.100;6.814;2024-02-14T04:29:34;10.30;98.20
4374;DHT22;2201;51.100;6.814;2024-02-14T04:32:08;10.30;98.20
4374;DHT22;2201;51.100;6.814;2024-02-14T04:34:38;10.30;98.20
4374;DHT22;2201;51.100;6.814;2024-02-14T04:37:09;10.30;98.20
4374;DHT22;2201;51.100;6.814;2024-02-14T04:39:39;10.40;98.20
4374;DHT22;2201;51.100;6.814;2024-02-14T04:42:06;10.30;98.20
4374;DHT22;2201;51.100;6.814;2024-02-14T04:44:33;10.40;98.20
4374;DHT22;2201;51.100;6.814;2024-02-14T04:47:02;10.40;98.20
4374;DHT22;2201;51.100;6.814;2024-02-14T04:49:38;10.40;98.20
4374;DHT22;2201;51.100;6.814;2024-02-14T04:52:05;10.40;98.20
4374;DHT22;2201;51.100;6.814;2024-02-14T04:54:33;10.40;98.20
4374;DHT22;2201;51.100;6.814;2024-02-14T04:57:00;10.40;98.20
4374;DHT22;2201;51.100;6.814;2024-02-14T04:59:27;10.40;98.20
4374;DHT22;2201;51.100;6.814;2024-02-14T05:01:54;10.40;98.20
4374;DHT22;2201;51.100;6.814;2024-02-14T05:04:24;10.40;98.20
4374;DHT22;2201;51.100;6.814;2024-02-14T05:06:52;10.40;98.20
4374;DHT22;2201;51.100;6.814;2024-02-14T05:09:22;10.40;98.20
4374;DHT22;2201;51.100;6.814;2024-02-14T05:11:49;10.40;98.20
4374;DHT22;2201;51.100;6.814;2024-02-14T05:14:16;10.40;98.20
4374;DHT22;2201;51.100;6.814;2024-02-14T05:16:43;10.40;98.20
4374;DHT22;2201;51.100;6.814;2024-02-14T05:19:10;10.40;98.20
4374;DHT22;2201;51.100;6.814;2024-02-14T05:21:37;10.40;98.20
4374;DHT22;2201;51.100;6.814;2024-02-14T05:24:08;10.40;98.20
4374;DHT22;2201;51.100;6.814;2024-02-14T05:26:40;10.40;98.20
4374;DHT22;2201;51.100;6.814;2024-02-14T05:29:17;10.40;98.20
4374;DHT22;2201;51.100;6.814;2024-02-14T05:31:50;10.40;98.20
4374;DHT22;2201;51.100;6.814;2024-02-14T05:34:21;10.40;98.20
4374;DHT22;2201;51.100;6.814;2024-02-14T05:36:50;10.30;98.20
4374;DHT22;2201;51.100;6.814;2024-02-14T05:39:24;10.30;98.20
4374;DHT22;2201;51.100;6.814;2024-02-14T05:41:54;10.30;98.20
4374;DHT22;2201;51.100;6.814;2024-02-14T05:44:21;10.30;98.20
4374;DHT22;2201;51.100;6.814;2024-02-14T05:46:48;10.30;98.20
4374;DHT22;2201;51.100;6.814;2024-02-14T05:49:17;10.30;98.20
4374;DHT22;2201;51.100;6.814;2024-02-14T05:51:49;10.30;98.20
4374;DHT22;2201;51.100;6.814;2024-02-14T05:54:22;10.30;98.20
4374;DHT22;2201;51.100;6.814;2024-02-14T05:56:49;10.30;98.20
4374;DHT22;2201;51.100;6.814;2024-02-14T05:59:18;10.30;98.20
4374;DHT22;2201;51.100;6.814;2024-02-14T06:01:45;10.30;98.20
4374;DHT22;2201;51.100;6.814;2024-02-14T06:04:15;10.30;98.20
4374;DHT22;2201;51.100;6.814;2024-02-14T06:06:50;10.30;98.20
4374;DHT22;2201;51.100;6.814;2024-02-14T06:09:23;10.30;98.20
4374;DHT22;2201;51.100;6.814;2024-02-14T06:11:50;10.30;98.20
4374;DHT22;2201;51.100;6.814;2024-02-14T06:14:26;10.30;98.20
4374;DHT22;2201;51.100;6.814;2024-02-14T06:16:59;10.30;98.20
4374;DHT22;2201;51.100;6.814;2024-02-14T06:19:44;10.30;98.20
4374;DHT22;2201;51.100;6.814;2024-02-14T06:22:16;10.30;98.20
4374;DHT22;2201;51.100;6.814;2024-02-14T06:25:08;10.30;98.20
4374;DHT22;2201;51.100;6.814;2024-02-14T06:27:35;10.30;98.20
4374;DHT22;2201;51.100;6.814;2024-02-14T06:30:07;10.30;98.20
4374;DHT22;2201;51.100;6.814;2024-02-14T06:32:36;10.30;98.20
4374;DHT22;2201;51.100;6.814;2024-02-14T06:38:17;10.30;98.20
4374;DHT22;2201;51.100;6.814;2024-02-14T06:38:48;10.40;98.20
4374;DHT22;2201;51.100;6.814;2024-02-14T06:41:18;10.40;98.20
4374;DHT22;2201;51.100;6.814;2024-02-14T06:43:49;10.40;98.20
4374;DHT22;2201;51.100;6.814;2024-02-14T06:46:18;10.40;98.20
4374;DHT22;2201;51.100;6.814;2024-02-14T06:48:48;10.40;98.20
4374;DHT22;2201;51.100;6.814;2024-02-14T06:51:30;10.40;98.20
4374;DHT22;2201;51.100;6.814;2024-02-14T06:53:57;10.50;98.20
4374;DHT22;2201;51.100;6.814;2024-02-14T06:56:29;10.50;98.20
4374;DHT22;2201;51.100;6.814;2024-02-14T06:58:56;10.50;98.20
4374;DHT22;2201;51.100;6.814;2024-02-14T07:01:25;10.50;98.20
4374;DHT22;2201;51.100;6.814;2024-02-14T07:04:01;10.50;98.20
4374;DHT22;2201;51.100;6.814;2024-02-14T07:06:30;10.60;98.20
4374;DHT22;2201;51.100;6.814;2024-02-14T07:08:57;10.60;98.20
4374;DHT22;2201;51.100;6.814;2024-02-14T07:11:24;10.60;98.20
4374;DHT22;2201;51.100;6.814;2024-02-14T07:13:59;10.60;98.20
4374;DHT22;2201;51.100;6.814;2024-02-14T07:16:26;10.70;98.20
4374;DHT22;2201;51.100;6.814;2024-02-14T07:18:53;10.70;98.20
4374;DHT22;2201;51.100;6.814;2024-02-14T07:21:21;10.70;98.20
4374;DHT22;2201;51.100;6.814;2024-02-14T07:23:48;10.70;98.20
4374;DHT22;2201;51.100;6.814;2024-02-14T07:26:15;10.70;98.20
4374;DHT22;2201;51.100;6.814;2024-02-14T07:28:42;10.80;98.20
4374;DHT22;2201;51.100;6.814;2024-02-14T07:31:11;10.80;98.20
4374;DHT22;2201;51.100;6.814;2024-02-14T07:33:40;10.80;98.20
4374;DHT22;2201;51.100;6.814;2024-02-14T07:36:08;10.80;98.20
4374;DHT22;2201;51.100;6.814;2024-02-14T07:38:35;10.80;98.20
4374;DHT22;2201;51.100;6.814;2024-02-14T07:41:02;10.90;98.20
4374;DHT22;2201;51.100;6.814;2024-02-14T07:43:32;10.90;98.20
4374;DHT22;2201;51.100;6.814;2024-02-14T07:45:59;10.90;98.20
4374;DHT22;2201;51.100;6.814;2024-02-14T07:48:30;10.90;98.20
4374;DHT22;2201;51.100;6.814;2024-02-14T07:50:57;11.00;98.20
4374;DHT22;2201;51.100;6.814;2024-02-14T07:53:42;11.00;98.20
4374;DHT22;2201;51.100;6.814;2024-02-14T07:56:09;11.00;98.20
4374;DHT22;2201;51.100;6.814;2024-02-14T07:58:36;11.10;98.20
4374;DHT22;2201;51.100;6.814;2024-02-14T08:01:03;11.10;98.20
4374;DHT22;2201;51.100;6.814;2024-02-14T08:03:35;11.10;98.20
4374;DHT22;2201;51.100;6.814;2024-02-14T08:06:02;11.20;98.20
4374;DHT22;2201;51.100;6.814;2024-02-14T08:08:29;11.20;98.20
4374;DHT22;2201;51.100;6.814;2024-02-14T08:10:56;11.20;98.20
4374;DHT22;2201;51.100;6.814;2024-02-14T08:13:23;11.30;98.20
4374;DHT22;2201;51.100;6.814;2024-02-14T08:15:53;11.30;98.20
4374;DHT22;2201;51.100;6.814;2024-02-14T08:18:35;11.30;98.20
4374;DHT22;2201;51.100;6.814;2024-02-14T08:21:30;11.30;98.20
4374;DHT22;2201;51.100;6.814;2024-02-14T08:24:01;11.30;98.20
4374;DHT22;2201;51.100;6.814;2024-02-14T08:26:28;11.40;98.20
4374;DHT22;2201;51.100;6.814;2024-02-14T08:28:57;11.40;98.20
4374;DHT22;2201;51.100;6.814;2024-02-14T08:31:25;11.40;98.20
4374;DHT22;2201;51.100;6.814;2024-02-14T08:33:52;11.50;98.20
4374;DHT22;2201;51.100;6.814;2024-02-14T08:36:19;11.50;98.20
4374;DHT22;2201;51.100;6.814;2024-02-14T08:38:48;11.50;98.20
4374;DHT22;2201;51.100;6.814;2024-02-14T08:41:16;11.60;98.20
4374;DHT22;2201;51.100;6.814;2024-02-14T08:43:47;11.50;98.20
4374;DHT22;2201;51.100;6.814;2024-02-14T08:46:17;11.60;98.20
4374;DHT22;2201;51.100;6.814;2024-02-14T08:48:44;11.60;98.20
4374;DHT22;2201;51.100;6.814;2024-02-14T08:51:12;11.60;98.20
4374;DHT22;2201;51.100;6.814;2024-02-14T08:53:49;11.60;98.20
4374;DHT22;2201;51.100;6.814;2024-02-14T08:56:22;11.60;98.20
4374;DHT22;2201;51.100;6.814;2024-02-14T08:58:49;11.60;98.20
4374;DHT22;2201;51.100;6.814;2024-02-14T09:01:19;11.60;98.20
4374;DHT22;2201;51.100;6.814;2024-02-14T09:03:47;11.60;98.20
4374;DHT22;2201;51.100;6.814;2024-02-14T09:06:30;11.60;98.20
4374;DHT22;2201;51.100;6.814;2024-02-14T09:09:12;11.60;98.20
4374;DHT22;2201;51.100;6.814;2024-02-14T09:11:41;11.70;98.20
4374;DHT22;2201;51.100;6.814;2024-02-14T09:14:11;11.70;98.20
4374;DHT22;2201;51.100;6.814;2024-02-14T09:16:43;11.80;98.20
4374;DHT22;2201;51.100;6.814;2024-02-14T09:19:14;11.80;98.20
4374;DHT22;2201;51.100;6.814;2024-02-14T09:22:28;11.90;98.20
4374;DHT22;2201;51.100;6.814;2024-02-14T09:25:00;12.00;98.20
4374;DHT22;2201;51.100;6.814;2024-02-14T09:27:29;12.10;98.20
4374;DHT22;2201;51.100;6.814;2024-02-14T09:29:56;12.20;98.20
4374;DHT22;2201;51.100;6.814;2024-02-14T09:32:23;12.30;98.20
4374;DHT22;2201;51.100;6.814;2024-02-14T09:34:50;12.40;98.20
4374;DHT22;2201;51.100;6.814;2024-02-14T09:37:23;12.50;98.20
4374;DHT22;2201;51.100;6.814;2024-02-14T09:40:29;12.50;98.20
4374;DHT22;2201;51.100;6.814;2024-02-14T09:43:10;12.60;98.20
4374;DHT22;2201;51.100;6.814;2024-02-14T09:45:45;12.60;98.20
4374;DHT22;2201;51.100;6.814;2024-02-14T09:51:42;12.60;98.20
4374;DHT22;2201;51.100;6.814;2024-02-14T09:54:22;12.70;98.20
4374;DHT22;2201;51.100;6.814;2024-02-14T09:57:14;12.70;98.20
4374;DHT22;2201;51.100;6.814;2024-02-14T10:03:10;12.70;98.20
4374;DHT22;2201;51.100;6.814;2024-02-14T10:05:40;12.70;98.20
4374;DHT22;2201;51.100;6.814;2024-02-14T10:08:08;12.80;98.20
4374;DHT22;2201;51.100;6.814;2024-02-14T10:10:42;12.80;98.20
4374;DHT22;2201;51.100;6.814;2024-02-14T10:17:22;12.80;98.20
4374;DHT22;2201;51.100;6.814;2024-02-14T10:26:55;12.80;98.20
4374;DHT22;2201;51.100;6.814;2024-02-14T10:29:41;12.80;98.20
4374;DHT22;2201;51.100;6.814;2024-02-14T10:32:32;12.80;98.20
4374;DHT22;2201;51.100;6.814;2024-02-14T10:35:27;12.80;98.20
4374;DHT22;2201;51.100;6.814;2024-02-14T10:41:48;13.00;98.20
4374;DHT22;2201;51.100;6.814;2024-02-14T10:48:22;13.00;98.20
4374;DHT22;2201;51.100;6.814;2024-02-14T10:51:15;13.00;98.20
4374;DHT22;2201;51.100;6.814;2024-02-14T10:53:59;13.00;98.20
4374;DHT22;2201;51.100;6.814;2024-02-14T11:00:20;13.00;98.20
4374;DHT22;2201;51.100;6.814;2024-02-14T11:14:22;12.80;98.20
4374;DHT22;2201;51.100;6.814;2024-02-14T11:17:26;12.80;98.20
4374;DHT22;2201;51.100;6.814;2024-02-14T11:23:36;13.00;98.20
4374;DHT22;2201;51.100;6.814;2024-02-14T11:26:20;13.10;98.20
4374;DHT22;2201;51.100;6.814;2024-02-14T11:28:59;13.30;98.20
4374;DHT22;2201;51.100;6.814;2024-02-14T11:31:45;13.40;98.20
4374;DHT22;2201;51.100;6.814;2024-02-14T11:34:26;13.50;98.20
4374;DHT22;2201;51.100;6.814;2024-02-14T11:36:53;13.60;98.20
4374;DHT22;2201;51.100;6.814;2024-02-14T11:39:20;13.60;98.20
4374;DHT22;2201;51.100;6.814;2024-02-14T11:41:47;13.70;98.20
4374;DHT22;2201;51.100;6.814;2024-02-14T11:44:14;13.70;98.20
4374;DHT22;2201;51.100;6.814;2024-02-14T11:47:05;13.70;98.20
4374;DHT22;2201;51.100;6.814;2024-02-14T11:49:32;13.80;98.20
4374;DHT22;2201;51.100;6.814;2024-02-14T11:52:00;13.70;98.20
4374;DHT22;2201;51.100;6.814;2024-02-14T11:54:27;13.70;98.20
4374;DHT22;2201;51.100;6.814;2024-02-14T11:56:54;13.70;98.20
4374;DHT22;2201;51.100;6.814;2024-02-14T11:59:23;13.70;98.20
4374;DHT22;2201;51.100;6.814;2024-02-14T12:01:50;13.70;98.20
4374;DHT22;2201;51.100;6.814;2024-02-14T12:04:25;13.70;98.20
4374;DHT22;2201;51.100;6.814;2024-02-14T12:06:53;13.60;98.20
4374;DHT22;2201;51.100;6.814;2024-02-14T12:09:29;13.60;98.20
4374;DHT22;2201;51.100;6.814;2024-02-14T12:11:57;13.60;98.20
4374;DHT22;2201;51.100;6.814;2024-02-14T12:14:27;13.50;98.20
4374;DHT22;2201;51.100;6.814;2024-02-14T12:16:59;13.50;98.20
4374;DHT22;2201;51.100;6.814;2024-02-14T12:19:35;13.50;98.20
4374;DHT22;2201;51.100;6.814;2024-02-14T12:24:46;13.50;98.20
4374;DHT22;2201;51.100;6.814;2024-02-14T12:27:18;13.50;98.20
4374;DHT22;2201;51.100;6.814;2024-02-14T12:29:48;13.50;98.20
4374;DHT22;2201;51.100;6.814;2024-02-14T12:34:55;13.40;98.20
4374;DHT22;2201;51.100;6.814;2024-02-14T12:38:21;13.40;98.20
4374;DHT22;2201;51.100;6.814;2024-02-14T12:41:12;13.40;98.20
4374;DHT22;2201;51.100;6.814;2024-02-14T12:43:41;13.40;98.20
4374;DHT22;2201;51.100;6.814;2024-02-14T12:46:25;13.40;98.20
4374;DHT22;2201;51.100;6.814;2024-02-14T12:49:13;13.30;98.20
4374;DHT22;2201;51.100;6.814;2024-02-14T12:51:56;13.30;98.20
4374;DHT22;2201;51.100;6.814;2024-02-14T12:54:40;13.30;98.20
4374;DHT22;2201;51.100;6.814;2024-02-14T12:57:45;13.30;98.20
4374;DHT22;2201;51.100;6.814;2024-02-14T13:00:37;13.40;98.20
4374;DHT22;2201;51.100;6.814;2024-02-14T13:06:12;13.50;98.20
4374;DHT22;2201;51.100;6.814;2024-02-14T13:09:12;13.50;98.20
4374;DHT22;2201;51.100;6.814;2024-02-14T13:11:58;13.50;98.20
4374;DHT22;2201;51.100;6.814;2024-02-14T13:14:43;13.50;98.20
4374;DHT22;2201;51.100;6.814;2024-02-14T13:17:46;13.50;98.20
4374;DHT22;2201;51.100;6.814;2024-02-14T13:20:39;13.60;98.20
4374;DHT22;2201;51.100;6.814;2024-02-14T14:35:46;13.00;98.20
4374;DHT22;2201;51.100;6.814;2024-02-14T14:45:29;12.80;98.20
4374;DHT22;2201;51.100;6.814;2024-02-14T14:57:45;12.70;98.20
4374;DHT22;2201;51.100;6.814;2024-02-14T15:03:50;12.70;98.20
4374;DHT22;2201;51.100;6.814;2024-02-14T15:21:08;12.50;98.20
4374;DHT22;2201;51.100;6.814;2024-02-14T15:23:47;12.50;98.20
4374;DHT22;2201;51.100;6.814;2024-02-14T15:26:17;12.50;98.20
4374;DHT22;2201;51.100;6.814;2024-02-14T15:28:49;12.50;98.20
4374;DHT22;2201;51.100;6.814;2024-02-14T15:48:27;12.50;98.20
4374;DHT22;2201;51.100;6.814;2024-02-14T16:05:06;12.40;98.20
4374;DHT22;2201;51.100;6.814;2024-02-14T16:07:34;12.40;98.20
4374;DHT22;2201;51.100;6.814;2024-02-14T16:10:01;12.40;98.20
4374;DHT22;2201;51.100;6.814;2024-02-14T16:12:28;12.40;98.20
4374;DHT22;2201;51.100;6.814;2024-02-14T16:15:21;12.40;98.20
4374;DHT22;2201;51.100;6.814;2024-02-14T16:21:19;12.30;98.20
4374;DHT22;2201;51.100;6.814;2024-02-14T16:24:30;12.40;98.20
4374;DHT22;2201;51.100;6.814;2024-02-14T16:26:52;12.40;98.20
4374;DHT22;2201;51.100;6.814;2024-02-14T16:29:18;12.40;98.20
4374;DHT22;2201;51.100;6.814;2024-02-14T16:31:51;12.40;98.20
4374;DHT22;2201;51.100;6.814;2024-02-14T16:34:24;12.40;98.20
4374;DHT22;2201;51.100;6.814;2024-02-14T16:36:52;12.40;98.20
4374;DHT22;2201;51.100;6.814;2024-02-14T16:39:20;12.50;98.20
4374;DHT22;2201;51.100;6.814;2024-02-14T16:41:52;12.50;98.20
4374;DHT22;2201;51.100;6.814;2024-02-14T16:44:19;12.50;98.20
4374;DHT22;2201;51.100;6.814;2024-02-14T16:46:49;12.50;98.20
4374;DHT22;2201;51.100;6.814;2024-02-14T16:49:27;12.50;98.20
4374;DHT22;2201;51.100;6.814;2024-02-14T16:51:55;12.50;98.20
4374;DHT22;2201;51.100;6.814;2024-02-14T16:54:22;12.50;98.20
4374;DHT22;2201;51.100;6.814;2024-02-14T16:56:55;12.50;98.20
4374;DHT22;2201;51.100;6.814;2024-02-14T16:59:33;12.50;98.20
4374;DHT22;2201;51.100;6.814;2024-02-14T17:18:06;12.50;98.20
4374;DHT22;2201;51.100;6.814;2024-02-14T17:21:05;12.60;98.20
4374;DHT22;2201;51.100;6.814;2024-02-14T17:23:43;12.50;98.20
4374;DHT22;2201;51.100;6.814;2024-02-14T17:26:41;12.60;98.20
4374;DHT22;2201;51.100;6.814;2024-02-14T17:29:26;12.50;98.20
4374;DHT22;2201;51.100;6.814;2024-02-14T17:34:18;12.50;98.20
4374;DHT22;2201;51.100;6.814;2024-02-14T17:35:40;12.60;98.20
4374;DHT22;2201;51.100;6.814;2024-02-14T17:38:13;12.60;98.20
4374;DHT22;2201;51.100;6.814;2024-02-14T17:40:56;12.60;98.20
4374;DHT22;2201;51.100;6.814;2024-02-14T17:43:25;12.60;98.20
4374;DHT22;2201;51.100;6.814;2024-02-14T17:46:15;12.60;98.20
4374;DHT22;2201;51.100;6.814;2024-02-14T17:48:42;12.50;98.20
4374;DHT22;2201;51.100;6.814;2024-02-14T17:54:05;12.60;98.20
4374;DHT22;2201;51.100;6.814;2024-02-14T17:56:56;12.60;98.20
4374;DHT22;2201;51.100;6.814;2024-02-14T18:00:22;12.60;98.20
